Time;durP1;ratioP1;P1;durP2;ratioP2;P2;SDS_P1;SDS_P2;PMS_P1;PMS_P2;Temp;Humidity;BMP_temperature;BMP_pressure;BME280_temperature;BME280_humidity;BME280_pressure;Samples;Min_cycle;Max_cycle;Signal;HPM_P1;HPM_P2
2023/09/17 00:01:19;;;;;;;6.70;5.30;;;;;;;24.64;48.05;102364.30;106927;1254;25334;-56
2023/09/17 00:03:46;;;;;;;7.40;5.70;;;;;;;24.65;48.18;102361.39;106627;1260;25509;-56
2023/09/17 00:06:13;;;;;;;10.60;6.10;;;;;;;24.66;48.58;102361.33;106607;1270;25372;-56
2023/09/17 00:08:40;;;;;;;6.90;6.30;;;;;;;24.67;48.92;102363.23;106961;1251;25314;-56
2023/09/17 00:11:07;;;;;;;8.10;6.00;;;;;;;24.68;49.34;102360.89;107002;1261;25087;-55
2023/09/17 00:13:35;;;;;;;7.00;6.10;;;;;;;24.68;49.48;102359.48;106729;1254;22531;-55
2023/09/17 00:16:02;;;;;;;7.10;6.40;;;;;;;24.68;50.28;102359.29;106821;1257;25318;-55
2023/09/17 00:18:30;;;;;;;7.20;6.50;;;;;;;24.68;50.68;102362.13;106866;1260;25430;-55
2023/09/17 00:20:57;;;;;;;6.90;6.30;;;;;;;24.68;50.78;102363.89;106798;1266;25331;-55
2023/09/17 00:23:24;;;;;;;8.20;6.70;;;;;;;24.69;50.83;102361.40;106939;1267;25346;-55
2023/09/17 00:25:51;;;;;;;7.20;6.40;;;;;;;24.68;50.78;102359.80;106677;1265;25366;-55
2023/09/17 00:28:18;;;;;;;9.00;6.50;;;;;;;24.68;50.87;102361.77;106665;1258;25664;-55
2023/09/17 00:30:45;;;;;;;7.70;6.60;;;;;;;24.68;50.57;102361.77;106968;1251;25322;-56
2023/09/17 00:33:12;;;;;;;10.10;6.40;;;;;;;24.70;50.93;102363.46;106738;1254;25299;-55
2023/09/17 00:35:39;;;;;;;8.80;6.80;;;;;;;24.71;51.37;102366.03;106712;1263;25401;-55
2023/09/17 00:38:07;;;;;;;8.90;6.90;;;;;;;24.74;51.50;102368.05;106891;1257;25346;-55
2023/09/17 00:40:37;;;;;;;7.20;6.10;;;;;;;24.76;51.31;102367.77;106847;1256;22530;-55
2023/09/17 00:43:04;;;;;;;8.00;5.90;;;;;;;24.78;50.42;102366.57;106491;1257;25465;-55
2023/09/17 00:45:31;;;;;;;7.90;6.30;;;;;;;24.78;49.51;102364.25;106715;1257;25407;-56
2023/09/17 00:48:00;;;;;;;7.20;6.50;;;;;;;24.79;49.31;102366.84;106569;1267;25321;-56
2023/09/17 00:50:27;;;;;;;7.40;6.70;;;;;;;24.80;49.36;102362.75;106905;1254;23827;-55
2023/09/17 00:52:54;;;;;;;7.20;6.60;;;;;;;24.80;50.06;102363.43;106825;1256;22523;-56
2023/09/17 00:55:21;;;;;;;7.70;6.70;;;;;;;24.80;50.31;102362.05;106977;1263;25321;-56
2023/09/17 00:57:50;;;;;;;8.60;6.60;;;;;;;24.78;50.47;102364.27;106920;1255;25399;-55
2023/09/17 01:00:20;;;;;;;7.90;7.30;;;;;;;24.76;50.93;102368.30;106823;1267;25368;-55
2023/09/17 01:02:48;;;;;;;9.00;6.80;;;;;;;24.75;51.05;102369.42;106922;1256;25390;-56
2023/09/17 01:05:16;;;;;;;9.70;6.90;;;;;;;24.73;50.92;102366.47;106910;1254;25312;-57
2023/09/17 01:07:43;;;;;;;7.80;7.00;;;;;;;24.72;50.97;102364.91;106397;1263;22537;-56
2023/09/17 01:10:10;;;;;;;8.60;6.90;;;;;;;24.72;51.36;102366.86;106930;1254;22614;-56
2023/09/17 01:12:38;;;;;;;8.00;6.80;;;;;;;24.73;51.55;102363.66;106757;1253;25478;-57
2023/09/17 01:15:06;;;;;;;8.70;6.80;;;;;;;24.73;51.66;102365.95;106979;1254;22756;-56
2023/09/17 01:17:34;;;;;;;7.60;6.80;;;;;;;24.73;51.73;102361.69;106928;1259;24253;-55
2023/09/17 01:20:20;;;;;;;7.50;6.70;;;;;;;24.74;51.79;102361.13;106477;1262;25395;-57
2023/09/17 01:22:47;;;;;;;8.50;6.80;;;;;;;24.75;51.91;102360.52;106714;1269;25407;-56
2023/09/17 01:25:42;;;;;;;7.30;6.50;;;;;;;24.77;51.96;102362.01;106909;1254;25399;-56
2023/09/17 01:28:11;;;;;;;7.80;6.60;;;;;;;24.79;51.82;102358.71;107024;1260;25367;-56
2023/09/17 01:30:41;;;;;;;6.90;6.30;;;;;;;24.80;51.52;102359.56;106782;1269;22538;-55
2023/09/17 01:33:11;;;;;;;7.10;6.40;;;;;;;24.80;51.03;102361.34;107031;1250;22633;-57
2023/09/17 01:36:11;;;;;;;6.80;6.20;;;;;;;24.78;50.51;102361.59;106983;1254;25398;-58
2023/09/17 01:38:41;;;;;;;8.50;5.90;;;;;;;24.77;50.46;102359.54;106920;1266;25388;-58
2023/09/17 01:41:08;;;;;;;6.30;5.80;;;;;;;24.76;50.21;102361.55;106942;1250;25403;-57
2023/09/17 01:43:38;;;;;;;7.00;5.90;;;;;;;24.74;50.11;102361.66;106902;1257;25322;-56
2023/09/17 01:46:06;;;;;;;6.60;6.00;;;;;;;24.71;49.90;102363.92;106746;1263;26651;-56
2023/09/17 01:48:33;;;;;;;16.20;6.40;;;;;;;24.68;49.22;102363.93;106963;1251;24266;-57
2023/09/17 01:51:00;;;;;;;6.60;5.60;;;;;;;24.64;48.87;102364.82;106752;1253;25652;-56
2023/09/17 01:53:27;;;;;;;6.30;5.30;;;;;;;24.60;48.27;102364.14;106669;1270;22525;-56
2023/09/17 01:55:56;;;;;;;5.70;5.20;;;;;;;24.58;48.08;102367.67;106750;1254;25430;-56
2023/09/17 01:58:23;;;;;;;6.10;5.50;;;;;;;24.55;47.81;102361.79;106805;1257;25392;-56
2023/09/17 02:00:52;;;;;;;6.50;4.90;;;;;;;24.52;47.47;102364.10;106700;1259;22527;-56
2023/09/17 02:03:19;;;;;;;5.50;5.00;;;;;;;24.49;47.03;102365.69;106810;1257;25377;-56
2023/09/17 02:05:47;;;;;;;5.30;4.80;;;;;;;24.46;46.65;102359.11;107037;1263;25395;-57
2023/09/17 02:08:14;;;;;;;5.70;5.00;;;;;;;24.43;46.47;102362.63;106939;1257;25319;-57
2023/09/17 02:10:41;;;;;;;5.40;4.80;;;;;;;24.41;46.25;102362.52;106656;1258;25369;-57
2023/09/17 02:13:08;;;;;;;5.40;4.90;;;;;;;24.39;46.29;102366.06;107056;1257;25356;-57
2023/09/17 02:15:36;;;;;;;6.10;4.60;;;;;;;24.35;46.27;102363.95;107003;1254;25505;-57
2023/09/17 02:18:05;;;;;;;5.60;5.20;;;;;;;24.32;46.24;102368.01;106918;1254;25383;-57
2023/09/17 02:20:33;;;;;;;5.50;4.90;;;;;;;24.29;46.16;102365.91;106932;1255;22520;-56
2023/09/17 02:23:00;;;;;;;8.80;5.00;;;;;;;24.25;46.04;102368.73;106824;1263;25347;-57
2023/09/17 02:25:28;;;;;;;5.10;4.60;;;;;;;24.21;45.91;102366.09;106915;1260;25350;-55
2023/09/17 02:27:55;;;;;;;6.90;4.90;;;;;;;24.18;45.89;102365.38;106980;1261;25341;-57
2023/09/17 02:30:23;;;;;;;6.60;5.60;;;;;;;24.14;45.86;102362.92;106982;1260;25350;-57
2023/09/17 02:32:50;;;;;;;5.90;4.90;;;;;;;24.11;45.87;102356.71;106900;1251;25349;-56
2023/09/17 02:35:17;;;;;;;5.20;4.80;;;;;;;24.08;45.94;102360.41;106923;1257;25462;-56
2023/09/17 02:37:44;;;;;;;5.90;5.20;;;;;;;24.05;45.95;102361.46;106960;1254;25350;-57
2023/09/17 02:40:11;;;;;;;4.90;4.50;;;;;;;24.02;46.05;102357.90;107063;1251;25322;-56
2023/09/17 02:42:38;;;;;;;5.80;4.90;;;;;;;23.99;46.19;102359.80;106964;1254;25312;-56
2023/09/17 02:45:08;;;;;;;5.80;5.00;;;;;;;23.97;46.59;102360.66;106884;1250;25478;-56
2023/09/17 02:47:36;;;;;;;6.10;5.50;;;;;;;23.94;46.86;102364.18;106810;1267;25481;-55
2023/09/17 02:50:05;;;;;;;9.20;5.20;;;;;;;23.91;47.12;102363.05;106824;1263;22554;-56
2023/09/17 02:52:32;;;;;;;7.10;5.20;;;;;;;23.90;47.28;102361.20;106952;1256;22530;-55
2023/09/17 02:54:59;;;;;;;7.20;5.00;;;;;;;23.88;47.48;102363.25;106923;1254;25381;-56
2023/09/17 02:57:26;;;;;;;7.70;4.90;;;;;;;23.86;47.72;102363.71;106878;1264;25376;-56
2023/09/17 02:59:53;;;;;;;6.40;5.50;;;;;;;23.85;47.64;102365.36;106982;1261;24183;-56
2023/09/17 03:02:20;;;;;;;7.80;5.20;;;;;;;23.85;47.48;102365.17;106705;1259;25346;-57
2023/09/17 03:04:51;;;;;;;5.70;5.00;;;;;;;23.85;47.52;102364.10;106867;1254;25347;-57
2023/09/17 03:07:19;;;;;;;5.40;4.90;;;;;;;23.87;47.35;102364.91;106896;1263;24273;-58
2023/09/17 03:09:46;;;;;;;5.60;5.10;;;;;;;23.86;47.32;102364.23;106673;1263;22526;-57
2023/09/17 03:12:13;;;;;;;5.30;4.80;;;;;;;23.87;47.17;102363.83;106398;1272;24205;-56
2023/09/17 03:14:41;;;;;;;5.10;4.60;;;;;;;23.88;47.01;102363.98;106743;1254;25331;-56
2023/09/17 03:17:09;;;;;;;7.70;5.80;;;;;;;23.87;47.21;102365.07;106967;1254;25347;-56
2023/09/17 03:19:36;;;;;;;6.70;5.40;;;;;;;23.85;47.54;102367.27;106928;1257;25472;-56
2023/09/17 03:22:04;;;;;;;6.00;5.30;;;;;;;23.85;47.53;102368.17;107005;1254;25401;-57
2023/09/17 03:24:33;;;;;;;5.90;5.20;;;;;;;23.84;47.70;102368.95;107100;1250;25331;-56
2023/09/17 03:27:00;;;;;;;7.40;4.90;;;;;;;23.82;47.73;102369.92;106950;1251;25353;-56
2023/09/17 03:29:27;;;;;;;5.40;5.00;;;;;;;23.80;47.81;102370.91;106778;1266;22609;-58
2023/09/17 03:31:55;;;;;;;5.40;4.90;;;;;;;23.80;47.89;102368.11;106890;1257;25369;-56
2023/09/17 03:34:22;;;;;;;5.50;5.00;;;;;;;23.80;47.90;102372.34;106795;1267;25468;-56
2023/09/17 03:36:50;;;;;;;5.20;4.80;;;;;;;23.81;47.61;102372.30;106812;1257;25325;-56
2023/09/17 03:39:18;;;;;;;5.10;4.70;;;;;;;23.81;47.66;102376.86;106747;1263;25353;-57
2023/09/17 03:41:45;;;;;;;5.80;5.20;;;;;;;23.81;47.91;102372.08;106886;1258;25350;-56
2023/09/17 03:44:14;;;;;;;5.40;4.60;;;;;;;23.83;48.05;102373.96;106866;1257;25481;-57
2023/09/17 03:46:41;;;;;;;5.70;5.20;;;;;;;23.82;48.02;102372.40;106879;1255;25349;-57
2023/09/17 03:49:09;;;;;;;5.40;4.90;;;;;;;23.82;48.03;102373.83;106985;1257;23350;-57
2023/09/17 03:51:36;;;;;;;5.30;4.80;;;;;;;23.82;47.95;102376.10;106891;1260;24253;-56
2023/09/17 03:54:04;;;;;;;8.70;5.60;;;;;;;23.80;47.91;102378.69;106865;1269;25347;-56
2023/09/17 03:56:31;;;;;;;7.90;5.10;;;;;;;23.79;48.04;102378.05;106810;1256;25462;-57
2023/09/17 03:58:58;;;;;;;7.30;5.50;;;;;;;23.80;48.04;102374.45;106972;1267;25356;-57
2023/09/17 04:01:25;;;;;;;6.50;5.00;;;;;;;23.81;48.21;102374.77;106888;1254;25436;-55
2023/09/17 04:03:53;;;;;;;5.50;5.00;;;;;;;23.82;48.43;102374.00;106777;1253;24451;-56
2023/09/17 04:06:21;;;;;;;5.00;4.60;;;;;;;23.84;48.76;102376.40;106696;1257;24333;-57
2023/09/17 04:08:47;;;;;;;5.60;5.10;;;;;;;23.86;48.92;102378.77;106917;1254;25375;-57
2023/09/17 04:11:16;;;;;;;5.80;5.20;;;;;;;23.87;48.87;102373.89;106785;1256;25449;-57
2023/09/17 04:13:44;;;;;;;6.80;5.00;;;;;;;23.89;48.71;102378.45;106986;1263;25373;-57
2023/09/17 04:16:12;;;;;;;5.60;5.10;;;;;;;23.89;48.52;102379.84;106669;1255;22647;-56
2023/09/17 04:18:39;;;;;;;6.50;5.40;;;;;;;23.90;48.49;102384.61;106482;1267;25386;-57
2023/09/17 04:21:06;;;;;;;5.90;5.40;;;;;;;23.90;48.23;102387.41;106676;1275;25331;-57
2023/09/17 04:23:33;;;;;;;5.30;4.80;;;;;;;23.90;48.02;102384.06;106591;1270;25424;-57
2023/09/17 04:26:01;;;;;;;4.70;4.30;;;;;;;23.90;47.51;102388.11;106431;1272;25456;-57
2023/09/17 04:28:28;;;;;;;4.80;4.40;;;;;;;23.90;47.26;102386.91;107088;1256;25360;-57
2023/09/17 04:30:56;;;;;;;5.50;5.00;;;;;;;23.88;47.06;102388.58;106644;1269;25328;-57
2023/09/17 04:33:23;;;;;;;4.60;4.20;;;;;;;23.88;46.70;102393.03;107003;1257;25376;-57
2023/09/17 04:35:58;;;;;;;6.50;4.10;;;;;;;23.88;46.02;102393.20;106936;1257;25319;-57
2023/09/17 04:38:27;;;;;;;4.80;3.80;;;;;;;23.87;45.37;102394.29;106938;1250;25401;-56
2023/09/17 04:40:54;;;;;;;4.60;3.70;;;;;;;23.88;45.06;102394.27;107053;1250;22561;-57
2023/09/17 04:43:23;;;;;;;4.70;3.70;;;;;;;23.88;44.90;102393.02;106827;1254;25367;-57
2023/09/17 04:45:50;;;;;;;4.00;3.50;;;;;;;23.88;45.14;102394.77;106880;1263;25365;-56
2023/09/17 04:48:32;;;;;;;3.50;3.10;;;;;;;23.89;45.31;102396.14;106972;1253;25341;-57
2023/09/17 04:50:59;;;;;;;6.00;3.90;;;;;;;23.90;45.14;102397.89;106546;1267;25372;-57
2023/09/17 04:53:26;;;;;;;3.20;3.00;;;;;;;23.90;45.02;102400.01;106831;1262;22529;-56
2023/09/17 04:55:54;;;;;;;4.40;3.70;;;;;;;23.91;44.84;102397.98;106529;1267;25398;-57
2023/09/17 04:58:24;;;;;;;5.30;3.30;;;;;;;23.93;44.75;102403.92;106585;1256;22662;-57
2023/09/17 05:00:54;;;;;;;6.60;3.30;;;;;;;23.95;44.72;102406.67;106606;1256;25446;-57
2023/09/17 05:03:21;;;;;;;5.70;3.50;;;;;;;23.96;44.41;102405.88;106952;1253;25277;-57
2023/09/17 05:05:49;;;;;;;7.10;4.10;;;;;;;23.98;43.87;102409.86;106853;1254;25328;-57
2023/09/17 05:08:18;;;;;;;3.90;3.40;;;;;;;24.00;43.71;102410.83;106900;1254;25545;-56
2023/09/17 05:10:45;;;;;;;4.40;3.40;;;;;;;24.02;43.68;102414.09;106927;1250;25278;-57
2023/09/17 05:13:13;;;;;;;3.70;3.40;;;;;;;24.03;43.81;102415.83;106899;1262;25503;-56
2023/09/17 05:15:40;;;;;;;3.40;3.10;;;;;;;24.05;43.77;102418.20;106939;1251;25331;-57
2023/09/17 05:18:09;;;;;;;5.20;3.30;;;;;;;24.08;43.74;102420.00;106569;1267;25349;-57
2023/09/17 05:20:41;;;;;;;3.80;3.50;;;;;;;24.11;43.82;102421.62;106911;1250;25870;-57
2023/09/17 05:23:08;;;;;;;6.20;3.20;;;;;;;24.14;44.07;102425.86;106972;1250;25423;-57
2023/09/17 05:25:36;;;;;;;4.10;3.70;;;;;;;24.18;44.10;102426.91;106848;1256;25773;-57
2023/09/17 05:28:06;;;;;;;3.20;2.90;;;;;;;24.21;43.89;102429.06;106937;1253;25366;-57
2023/09/17 05:30:34;;;;;;;3.70;3.30;;;;;;;24.25;43.93;102428.16;106772;1263;25405;-56
2023/09/17 05:33:04;;;;;;;3.70;3.20;;;;;;;24.28;44.01;102426.96;106881;1251;25328;-57
2023/09/17 05:35:32;;;;;;;4.70;3.50;;;;;;;24.32;43.74;102431.55;106546;1258;25356;-57
2023/09/17 05:37:59;;;;;;;3.00;2.80;;;;;;;24.36;43.68;102433.83;106666;1253;25318;-56
2023/09/17 05:40:27;;;;;;;3.90;3.50;;;;;;;24.40;43.71;102434.50;106913;1254;25356;-57
2023/09/17 05:42:56;;;;;;;3.70;3.30;;;;;;;24.43;43.82;102433.94;106937;1250;25454;-56
2023/09/17 05:45:23;;;;;;;3.50;3.20;;;;;;;24.47;43.26;102434.64;107091;1254;25284;-57
2023/09/17 05:47:50;;;;;;;3.10;2.90;;;;;;;24.50;43.02;102436.06;106687;1269;25331;-56
2023/09/17 05:50:18;;;;;;;4.80;3.20;;;;;;;24.57;43.02;102434.98;107019;1260;25376;-56
2023/09/17 05:52:45;;;;;;;3.80;3.50;;;;;;;24.64;42.84;102438.63;106940;1254;25418;-57
2023/09/17 05:55:14;;;;;;;3.60;3.20;;;;;;;24.71;42.81;102440.79;106989;1251;25379;-57
2023/09/17 05:57:42;;;;;;;3.30;3.10;;;;;;;24.76;42.90;102442.81;106947;1254;25452;-57
2023/09/17 06:00:10;;;;;;;4.20;3.10;;;;;;;24.80;42.52;102443.33;106742;1263;25390;-57
2023/09/17 06:02:43;;;;;;;4.10;3.70;;;;;;;24.84;42.49;102443.42;107002;1254;25328;-57
2023/09/17 06:05:12;;;;;;;3.50;3.00;;;;;;;24.89;42.67;102446.54;106694;1256;25362;-57
2023/09/17 06:07:40;;;;;;;5.70;3.20;;;;;;;24.94;42.54;102447.50;106883;1254;25347;-57
2023/09/17 06:10:07;;;;;;;4.10;3.50;;;;;;;24.98;42.92;102449.92;106886;1251;25466;-57
2023/09/17 06:12:35;;;;;;;3.50;3.20;;;;;;;25.03;43.25;102455.16;107109;1260;22533;-57
2023/09/17 06:15:04;;;;;;;4.00;3.50;;;;;;;25.07;43.04;102452.79;106894;1263;25353;-57
2023/09/17 06:17:31;;;;;;;5.70;4.00;;;;;;;25.14;43.30;102454.20;106746;1256;22611;-56
2023/09/17 06:19:59;;;;;;;5.20;4.30;;;;;;;25.23;43.39;102456.38;106676;1261;25356;-57
2023/09/17 06:22:27;;;;;;;4.50;3.60;;;;;;;25.31;43.38;102461.42;106862;1254;25492;-57
2023/09/17 06:24:55;;;;;;;4.60;3.80;;;;;;;25.38;43.51;102460.65;106597;1257;25382;-57
2023/09/17 06:27:22;;;;;;;4.50;3.80;;;;;;;25.44;43.12;102463.34;107013;1251;26202;-57
2023/09/17 06:29:49;;;;;;;4.00;3.70;;;;;;;25.49;42.52;102463.03;106823;1260;24369;-57
2023/09/17 06:32:16;;;;;;;4.90;4.00;;;;;;;25.55;42.42;102467.50;106990;1262;22372;-57
2023/09/17 06:34:44;;;;;;;4.50;3.50;;;;;;;25.61;42.48;102468.40;106726;1253;22572;-57
2023/09/17 06:37:11;;;;;;;4.50;3.80;;;;;;;25.65;42.35;102465.11;106907;1254;25337;-57
2023/09/17 06:39:38;;;;;;;4.80;3.50;;;;;;;25.68;42.04;102465.83;106666;1257;25321;-57
2023/09/17 06:42:05;;;;;;;4.40;3.10;;;;;;;25.70;41.03;102464.81;106691;1259;25412;-57
2023/09/17 06:44:33;;;;;;;4.10;3.70;;;;;;;25.72;40.47;102465.63;106889;1270;22534;-57
2023/09/17 06:47:00;;;;;;;3.70;3.30;;;;;;;25.73;40.56;102467.13;106942;1251;25439;-56
2023/09/17 06:49:27;;;;;;;3.90;3.60;;;;;;;25.78;40.47;102468.65;106976;1251;25322;-57
2023/09/17 06:51:55;;;;;;;3.30;3.00;;;;;;;25.85;40.25;102472.16;106677;1253;25505;-57
2023/09/17 06:54:22;;;;;;;4.10;3.30;;;;;;;25.93;39.57;102477.35;106736;1267;25331;-58
2023/09/17 06:56:49;;;;;;;3.50;3.00;;;;;;;26.02;39.46;102483.41;106986;1251;22520;-57
2023/09/17 06:59:16;;;;;;;4.90;3.10;;;;;;;26.11;39.69;102490.00;106698;1254;25315;-57
2023/09/17 07:01:45;;;;;;;3.60;3.30;;;;;;;26.19;39.97;102492.00;106682;1259;22646;-57
2023/09/17 07:04:13;;;;;;;4.20;3.50;;;;;;;26.26;40.41;102491.92;106698;1267;25343;-57
2023/09/17 07:06:40;;;;;;;4.30;3.20;;;;;;;26.30;40.20;102494.71;107014;1250;24270;-55
2023/09/17 07:09:07;;;;;;;4.90;3.60;;;;;;;26.34;40.15;102496.27;106926;1256;25389;-56
2023/09/17 07:11:34;;;;;;;4.30;3.40;;;;;;;26.40;40.62;102497.83;107124;1254;25564;-57
2023/09/17 07:14:09;;;;;;;3.40;3.10;;;;;;;26.49;40.51;102496.57;106758;1261;422840;-59
2023/09/17 07:16:37;;;;;;;3.80;3.50;;;;;;;26.59;40.22;102491.17;106923;1254;22633;-55
2023/09/17 07:19:05;;;;;;;4.10;3.70;;;;;;;26.64;40.34;102487.63;106827;1257;25465;-56
2023/09/17 07:21:32;;;;;;;4.40;3.30;;;;;;;26.69;40.38;102490.52;106929;1254;25349;-55
2023/09/17 07:23:59;;;;;;;5.00;3.80;;;;;;;26.74;40.56;102484.73;106707;1266;25853;-55
2023/09/17 07:26:28;;;;;;;8.60;4.20;;;;;;;26.80;40.73;102488.44;106653;1271;25331;-55
2023/09/17 07:28:55;;;;;;;5.30;3.70;;;;;;;26.86;40.67;102493.27;106867;1256;25465;-55
2023/09/17 07:31:22;;;;;;;3.50;3.20;;;;;;;26.91;40.40;102497.35;106797;1251;25343;-56
2023/09/17 07:33:49;;;;;;;5.00;3.70;;;;;;;26.95;39.79;102494.95;106824;1260;25405;-57
2023/09/17 07:36:17;;;;;;;3.70;3.10;;;;;;;26.96;39.84;102497.05;106877;1263;25347;-55
2023/09/17 07:38:44;;;;;;;4.30;3.80;;;;;;;26.97;40.02;102497.50;106795;1257;25402;-55
2023/09/17 07:41:11;;;;;;;3.60;3.30;;;;;;;26.99;39.91;102498.11;106715;1253;25340;-55
2023/09/17 07:43:39;;;;;;;4.10;3.20;;;;;;;27.00;39.26;102496.45;106694;1267;25395;-55
2023/09/17 07:46:06;;;;;;;3.90;3.50;;;;;;;26.98;39.12;102495.66;106895;1252;25358;-56
2023/09/17 07:48:33;;;;;;;4.00;3.50;;;;;;;26.97;39.76;102501.06;106619;1258;25417;-55
2023/09/17 07:51:01;;;;;;;3.80;3.40;;;;;;;26.98;39.60;102501.71;106684;1259;25495;-55
2023/09/17 07:53:28;;;;;;;3.60;3.20;;;;;;;26.97;39.00;102501.77;106988;1256;25417;-57
2023/09/17 07:55:56;;;;;;;4.40;3.20;;;;;;;26.98;39.40;102504.04;106956;1259;22523;-55
2023/09/17 07:58:23;;;;;;;5.20;3.30;;;;;;;26.98;39.35;102503.50;106949;1251;25353;-55
2023/09/17 08:00:50;;;;;;;6.90;3.90;;;;;;;26.98;39.24;102504.20;106751;1254;25533;-55
2023/09/17 08:03:17;;;;;;;4.60;3.50;;;;;;;27.00;39.09;102504.80;106871;1254;25328;-55
2023/09/17 08:05:46;;;;;;;3.50;3.10;;;;;;;27.02;39.02;102504.52;106869;1257;25475;-57
2023/09/17 08:08:14;;;;;;;4.40;2.90;;;;;;;27.03;38.75;102502.27;106969;1253;25559;-55
2023/09/17 08:10:41;;;;;;;6.50;3.30;;;;;;;27.04;38.53;102504.86;106839;1254;22993;-55
2023/09/17 08:13:08;;;;;;;3.00;2.70;;;;;;;27.05;38.35;102501.63;106442;1260;25343;-57
2023/09/17 08:15:36;;;;;;;4.60;3.20;;;;;;;27.06;38.18;102501.91;106903;1266;25356;-56
2023/09/17 08:18:04;;;;;;;3.30;3.00;;;;;;;27.08;38.13;102505.19;106972;1252;25352;-56
2023/09/17 08:20:32;;;;;;;4.40;3.40;;;;;;;27.11;38.18;102500.91;106865;1254;25360;-56
2023/09/17 08:22:59;;;;;;;4.00;3.60;;;;;;;27.13;38.36;102497.23;106925;1254;25401;-57
2023/09/17 08:25:26;;;;;;;3.30;3.10;;;;;;;27.12;38.05;102493.02;106889;1256;25376;-57
2023/09/17 08:27:54;;;;;;;4.40;3.30;;;;;;;27.08;37.78;102495.38;106834;1254;25238;-57
2023/09/17 08:30:21;;;;;;;3.30;3.00;;;;;;;26.99;38.26;102494.70;106909;1250;25379;-57
2023/09/17 08:32:48;;;;;;;3.80;2.90;;;;;;;26.97;38.59;102496.98;106907;1254;25328;-57
2023/09/17 08:35:15;;;;;;;3.60;3.10;;;;;;;26.98;38.15;102493.20;106999;1256;25365;-57
2023/09/17 08:37:43;;;;;;;3.90;3.10;;;;;;;26.98;37.48;102493.19;106930;1257;25309;-57
2023/09/17 08:40:17;;;;;;;5.80;3.30;;;;;;;26.98;37.91;102493.71;106914;1254;25470;-57
2023/09/17 08:42:45;;;;;;;3.30;3.10;;;;;;;26.99;37.75;102497.55;106707;1259;25356;-57
2023/09/17 08:45:13;;;;;;;3.60;3.30;;;;;;;27.01;37.81;102499.91;106801;1257;22548;-57
2023/09/17 08:47:40;;;;;;;4.70;3.60;;;;;;;27.02;38.40;102498.77;106889;1254;25353;-57
2023/09/17 08:50:10;;;;;;;3.80;3.40;;;;;;;27.04;38.93;102502.26;106840;1255;25475;-57
2023/09/17 08:52:42;;;;;;;3.60;3.30;;;;;;;27.07;38.57;102501.20;106950;1254;24199;-58
2023/09/17 08:55:10;;;;;;;3.80;3.50;;;;;;;27.11;38.81;102502.47;106937;1251;25356;-57
2023/09/17 08:57:38;;;;;;;4.10;3.20;;;;;;;27.16;38.85;102499.70;106829;1257;25363;-57
2023/09/17 09:00:10;;;;;;;4.10;3.70;;;;;;;27.17;38.43;102499.44;106921;1263;26638;-57
2023/09/17 09:02:46;;;;;;;4.70;4.00;;;;;;;27.17;38.51;102498.33;107049;1254;22635;-55
2023/09/17 09:05:16;;;;;;;3.80;3.40;;;;;;;27.18;38.37;102500.03;106896;1251;22543;-58
2023/09/17 09:07:44;;;;;;;3.60;3.20;;;;;;;27.21;38.50;102498.67;106893;1252;22532;-57
2023/09/17 09:10:12;;;;;;;4.10;3.30;;;;;;;27.23;38.63;102499.91;106882;1259;24448;-57
2023/09/17 09:12:41;;;;;;;8.10;3.50;;;;;;;27.24;38.28;102498.23;106862;1253;25328;-58
2023/09/17 09:15:10;;;;;;;4.00;3.60;;;;;;;27.26;38.43;102500.43;106859;1254;22652;-57
2023/09/17 09:17:38;;;;;;;3.70;3.40;;;;;;;27.28;38.50;102499.98;106823;1254;25468;-57
2023/09/17 09:20:10;;;;;;;3.60;3.30;;;;;;;27.29;38.30;102500.05;106918;1266;25223;-57
2023/09/17 09:22:38;;;;;;;4.10;3.70;;;;;;;27.33;38.39;102499.11;106717;1271;22582;-57
2023/09/17 09:25:06;;;;;;;3.70;3.40;;;;;;;27.35;38.41;102501.30;106774;1258;25495;-57
2023/09/17 09:27:33;;;;;;;4.10;3.80;;;;;;;27.36;38.22;102501.96;106713;1257;25356;-57
2023/09/17 09:30:03;;;;;;;4.20;3.80;;;;;;;27.37;38.02;102499.94;106926;1254;25474;-57
2023/09/17 09:32:31;;;;;;;4.20;3.80;;;;;;;27.38;37.64;102500.20;106694;1260;22524;-57
2023/09/17 09:34:58;;;;;;;3.80;3.40;;;;;;;27.41;37.90;102495.95;106939;1254;25356;-57
2023/09/17 09:37:25;;;;;;;4.60;3.50;;;;;;;27.45;37.92;102492.13;106450;1270;25529;-57
2023/09/17 09:39:52;;;;;;;7.10;4.20;;;;;;;27.49;38.29;102494.52;106783;1257;23132;-57
2023/09/17 09:42:19;;;;;;;5.60;3.80;;;;;;;27.55;38.27;102490.25;106843;1254;25356;-57
2023/09/17 09:44:46;;;;;;;5.10;4.00;;;;;;;27.60;38.44;102490.63;106922;1259;25439;-55
2023/09/17 09:47:14;;;;;;;4.70;4.20;;;;;;;27.63;38.53;102490.37;106608;1269;25414;-58
2023/09/17 09:49:42;;;;;;;5.00;4.20;;;;;;;27.65;38.32;102492.20;106619;1258;25478;-57
2023/09/17 09:52:14;;;;;;;3.70;3.40;;;;;;;27.67;38.26;102491.05;106866;1263;22527;-57
2023/09/17 09:54:41;;;;;;;4.60;3.80;;;;;;;27.71;38.43;102491.13;106908;1258;22520;-57
2023/09/17 09:57:11;;;;;;;4.10;3.80;;;;;;;27.74;38.42;102493.94;106817;1254;25353;-57
2023/09/17 09:59:40;;;;;;;5.10;3.90;;;;;;;27.78;38.09;102492.63;106861;1254;25334;-57
2023/09/17 10:02:10;;;;;;;4.80;4.30;;;;;;;27.80;38.12;102490.15;106810;1257;25324;-57
2023/09/17 10:04:37;;;;;;;4.20;3.90;;;;;;;27.81;37.52;102496.50;106901;1254;24303;-57
2023/09/17 10:07:07;;;;;;;4.90;4.10;;;;;;;27.81;37.40;102493.84;106954;1260;25392;-55
2023/09/17 10:09:34;;;;;;;4.80;4.40;;;;;;;27.80;37.75;102495.69;106975;1261;24219;-57
2023/09/17 10:12:01;;;;;;;5.40;4.90;;;;;;;27.80;37.76;102498.91;106432;1274;25318;-57
2023/09/17 10:14:30;;;;;;;5.00;4.50;;;;;;;27.80;37.23;102493.71;106896;1270;25465;-57
2023/09/17 10:16:57;;;;;;;4.70;4.30;;;;;;;27.81;37.34;102490.05;106805;1262;25446;-57
2023/09/17 10:19:24;;;;;;;5.10;4.60;;;;;;;27.83;37.54;102489.45;106883;1255;25638;-57
2023/09/17 10:21:51;;;;;;;4.90;4.50;;;;;;;27.83;37.91;102486.75;106502;1260;22527;-57
2023/09/17 10:24:19;;;;;;;4.70;4.30;;;;;;;27.98;37.64;102489.48;107006;1254;25340;-57
2023/09/17 10:26:46;;;;;;;5.30;4.70;;;;;;;28.06;37.13;102487.15;107114;1257;25449;-54
2023/09/17 10:29:14;;;;;;;7.90;5.00;;;;;;;28.08;36.98;102486.85;106507;1262;25557;-57
2023/09/17 10:31:42;;;;;;;5.10;4.60;;;;;;;28.10;36.98;102485.83;106865;1261;25445;-57
2023/09/17 10:34:10;;;;;;;5.40;4.90;;;;;;;28.09;37.08;102485.33;106906;1251;25356;-57
2023/09/17 10:36:38;;;;;;;5.70;4.80;;;;;;;28.10;36.90;102481.72;106910;1265;25309;-57
2023/09/17 10:39:06;;;;;;;6.70;5.20;;;;;;;28.11;37.02;102478.26;106591;1259;25352;-56
2023/09/17 10:41:35;;;;;;;7.10;5.10;;;;;;;28.13;37.24;102474.55;106873;1254;25439;-57
2023/09/17 10:44:03;;;;;;;6.20;5.60;;;;;;;28.14;37.67;102470.23;106837;1257;24217;-57
2023/09/17 10:46:31;;;;;;;7.60;6.80;;;;;;;28.12;37.36;102470.13;106839;1254;25227;-57
2023/09/17 10:48:59;;;;;;;11.10;9.70;;;;;;;28.11;37.44;102469.81;106987;1251;22534;-57
2023/09/17 10:51:26;;;;;;;7.20;6.60;;;;;;;28.14;37.04;102474.30;106999;1254;25328;-57
2023/09/17 10:53:54;;;;;;;7.10;6.40;;;;;;;28.16;36.25;102474.00;107046;1257;25331;-57
2023/09/17 10:56:21;;;;;;;10.20;6.50;;;;;;;28.18;36.52;102474.50;106957;1256;22520;-57
2023/09/17 10:58:51;;;;;;;7.50;5.60;;;;;;;28.20;36.69;102467.83;106922;1255;24222;-56
2023/09/17 11:01:25;;;;;;;5.80;5.30;;;;;;;28.22;36.70;102470.34;106906;1255;25314;-56
2023/09/17 11:04:01;;;;;;;5.50;5.00;;;;;;;28.24;36.57;102464.88;106888;1263;25434;-56
2023/09/17 11:06:29;;;;;;;6.50;5.50;;;;;;;28.25;36.60;102469.62;106963;1254;25519;-57
2023/09/17 11:08:57;;;;;;;5.90;5.40;;;;;;;28.25;36.27;102466.73;106917;1263;25347;-56
2023/09/17 11:11:24;;;;;;;6.30;5.70;;;;;;;28.24;36.16;102466.97;106821;1269;25366;-57
2023/09/17 11:13:53;;;;;;;5.80;5.30;;;;;;;28.24;36.48;102469.81;106972;1254;25340;-56
2023/09/17 11:16:21;;;;;;;6.30;5.70;;;;;;;28.26;36.50;102468.80;106994;1254;22559;-56
2023/09/17 11:19:11;;;;;;;8.20;6.20;;;;;;;28.27;36.73;102465.90;106992;1260;22618;-57
2023/09/17 11:21:40;;;;;;;6.70;5.60;;;;;;;28.26;36.16;102464.55;106822;1255;25433;-56